createdAt,value
2023-05-05T00:00:25.736Z,60811.94
2023-05-05T00:02:55.864Z,60815.75
2023-05-05T00:05:25.406Z,60815.38
2023-05-05T00:07:54.117Z,60822.69
2023-05-05T00:10:22.568Z,60816.31
2023-05-05T00:12:50.998Z,60807.34
2023-05-05T00:15:19.569Z,60815.06
2023-05-05T00:17:47.998Z,60811.25
2023-05-05T00:20:17.784Z,60805.94
2023-05-05T00:22:46.110Z,60815.47
2023-05-05T00:25:14.476Z,60811.81
2023-05-05T00:27:42.787Z,60811.81
2023-05-05T00:30:13.677Z,60811.41
2023-05-05T00:32:42.036Z,60815.06
2023-05-05T00:35:10.724Z,60813.03
2023-05-05T00:37:40.407Z,60817.25
2023-05-05T00:40:09.984Z,60803.38
2023-05-05T00:42:41.846Z,60792.63
2023-05-05T00:45:11.361Z,60792.22
2023-05-05T00:47:41.206Z,60789.50
2023-05-05T00:50:10.783Z,60790.56
2023-05-05T00:52:40.623Z,60787.19
2023-05-05T00:55:10.121Z,60795.63
2023-05-05T00:57:38.648Z,60800.78
2023-05-05T01:00:09.900Z,60792.59
2023-05-05T01:02:40.264Z,60785.28
2023-05-05T01:05:10.100Z,60780.78
2023-05-05T01:07:53.912Z,60770.03
2023-05-05T01:10:31.260Z,60768.09
2023-05-05T01:13:07.705Z,60764.59
2023-05-05T01:15:41.865Z,60770.28
2023-05-05T01:18:21.223Z,60763.34
2023-05-05T01:20:57.274Z,60763.50
2023-05-05T01:23:44.499Z,60768.38
2023-05-05T01:26:39.136Z,60768.94
2023-05-05T01:29:39.982Z,60772.06
2023-05-05T01:32:12.514Z,60773.00
2023-05-05T01:34:46.091Z,60774.09
2023-05-05T01:37:19.546Z,60773.16
2023-05-05T01:39:52.470Z,60767.84
2023-05-05T01:42:23.344Z,60763.78
2023-05-05T01:44:54.074Z,60766.78
2023-05-05T01:47:24.593Z,60768.25
2023-05-05T01:49:53.651Z,60756.28
2023-05-05T01:52:23.733Z,60745.25
2023-05-05T01:54:53.996Z,60730.16
2023-05-05T01:57:25.928Z,60724.72
2023-05-05T01:59:55.547Z,60722.94
2023-05-05T02:02:29.861Z,60718.59
2023-05-05T02:04:59.713Z,60715.34
2023-05-05T02:07:29.105Z,60716.16
2023-05-05T02:09:58.408Z,60716.97
2023-05-05T02:12:27.775Z,60710.19
2023-05-05T02:15:00.793Z,60710.56
2023-05-05T02:17:31.076Z,60710.19
2023-05-05T02:20:01.707Z,60712.22
2023-05-05T02:22:31.645Z,60707.03
2023-05-05T02:25:00.072Z,60703.88
2023-05-05T02:27:29.326Z,60695.34
2023-05-05T02:30:01.488Z,60695.19
2023-05-05T02:32:34.723Z,60686.78
2023-05-05T02:35:11.905Z,60684.59
2023-05-05T02:37:43.905Z,60687.56
2023-05-05T02:40:14.848Z,60679.03
2023-05-05T02:42:46.273Z,60682.69
2023-05-05T02:45:18.353Z,60682.41
2023-05-05T02:47:48.146Z,60691.50
2023-05-05T02:50:17.069Z,60696.81
2023-05-05T02:52:45.812Z,60696.81
2023-05-05T02:55:14.571Z,60692.06
2023-05-05T02:57:51.468Z,60692.75
2023-05-05T03:00:26.953Z,60698.59
2023-05-05T03:03:06.776Z,60698.19
2023-05-05T03:05:40.007Z,60695.88
2023-05-05T03:08:14.468Z,60689.34
2023-05-05T03:10:48.132Z,60679.69
2023-05-05T03:13:19.609Z,60682.97
2023-05-05T03:15:50.736Z,60678.22
2023-05-05T03:18:23.612Z,60681.19
2023-05-05T03:20:52.575Z,60685.53
2023-05-05T03:23:22.737Z,60688.13
2023-05-05T03:25:51.877Z,60677.53
2023-05-05T03:28:20.224Z,60672.50
2023-05-05T03:30:48.618Z,60670.72
2023-05-05T03:33:17.345Z,60675.06
2023-05-05T03:35:47.037Z,60666.66
2023-05-05T03:38:15.365Z,60659.03
2023-05-05T03:40:44.808Z,60659.44
2023-05-05T03:43:13.416Z,60657.94
2023-05-05T03:45:42.155Z,60661.63
2023-05-05T03:48:10.487Z,60670.16
2023-05-05T03:50:38.814Z,60670.72
2023-05-05T03:53:08.561Z,60667.22
2023-05-05T03:55:36.901Z,60672.34
2023-05-05T03:58:05.206Z,60661.50
2023-05-05T04:00:33.474Z,60674.38
2023-05-05T04:03:02.055Z,60667.59
2023-05-05T04:05:30.424Z,60668.53
2023-05-05T04:07:58.735Z,60665.97
2023-05-05T04:10:28.433Z,60665.97
2023-05-05T04:12:56.884Z,60665.56
2023-05-05T04:15:25.452Z,60670.31
2023-05-05T04:17:53.841Z,60669.78
2023-05-05T04:20:22.435Z,60668.81
2023-05-05T04:22:52.585Z,60671.81
2023-05-05T04:25:21.186Z,60661.06
2023-05-05T04:27:51.091Z,60660.94
2023-05-05T04:30:19.539Z,60658.50
2023-05-05T04:32:49.974Z,60659.44
2023-05-05T04:35:18.377Z,60651.97
2023-05-05T04:37:46.669Z,60651.53
2023-05-05T04:40:15.012Z,60648.97
2023-05-05T04:42:43.372Z,60651.28
2023-05-05T04:45:14.125Z,60663.66
2023-05-05T04:47:42.974Z,60659.03
2023-05-05T04:50:12.307Z,60662.31
2023-05-05T04:52:40.688Z,60663.78
2023-05-05T04:55:10.570Z,60668.16
2023-05-05T04:57:39.156Z,60665.56
2023-05-05T05:00:09.564Z,60680.50
2023-05-05T05:02:39.634Z,60676.97
2023-05-05T05:05:09.502Z,60679.03
2023-05-05T05:07:37.839Z,60679.97
2023-05-05T05:10:07.385Z,60685.53
2023-05-05T05:12:36.050Z,60683.91
2023-05-05T05:15:04.807Z,60685.13
2023-05-05T05:17:33.128Z,60685.53
2023-05-05T05:20:04.918Z,60688.78
2023-05-05T05:22:35.021Z,60685.13
2023-05-05T05:25:05.848Z,60692.47
2023-05-05T05:27:34.178Z,60692.75
2023-05-05T05:30:03.128Z,60708.25
2023-05-05T05:32:31.566Z,60705.84
2023-05-05T05:35:00.092Z,60710.72
2023-05-05T05:37:31.525Z,60717.09
2023-05-05T05:39:59.898Z,60718.59
2023-05-05T05:42:28.384Z,60720.50
2023-05-05T05:44:58.422Z,60722.69
2023-05-05T05:47:26.899Z,60727.31
2023-05-05T05:49:55.571Z,60724.47
2023-05-05T05:52:24.005Z,60739.28
2023-05-05T05:54:53.700Z,60738.47
2023-05-05T05:57:24.511Z,60747.97
2023-05-05T05:59:53.856Z,60748.66
2023-05-05T06:02:22.182Z,60751.81
2023-05-05T06:04:50.889Z,60773.00
2023-05-05T06:07:19.431Z,60775.88
2023-05-05T06:09:48.125Z,60778.75
2023-05-05T06:12:17.794Z,60795.47
2023-05-05T06:14:46.241Z,60809.75
2023-05-05T06:17:14.584Z,60815.31
2023-05-05T06:19:43.370Z,60809.22
2023-05-05T06:22:11.701Z,60815.47
2023-05-05T06:24:40.026Z,60809.50
2023-05-05T06:27:08.628Z,60828.69
2023-05-05T06:29:38.324Z,60829.63
2023-05-05T06:32:08.408Z,60826.22
2023-05-05T06:34:36.768Z,60834.69
2023-05-05T06:37:05.058Z,60838.34
2023-05-05T06:39:33.424Z,60838.63
2023-05-05T06:42:02.168Z,60851.97
2023-05-05T06:44:31.068Z,60855.38
2023-05-05T06:47:00.908Z,60867.22
2023-05-05T06:49:29.410Z,60877.44
2023-05-05T06:51:57.825Z,60883.16
2023-05-05T06:54:26.115Z,60890.13
2023-05-05T06:56:54.511Z,60889.19
2023-05-05T06:59:22.812Z,60890.53
2023-05-05T07:01:51.766Z,60906.31
2023-05-05T07:04:22.344Z,60897.06
2023-05-05T07:06:50.692Z,60920.50
2023-05-05T07:09:20.287Z,60922.28
2023-05-05T07:11:48.712Z,60916.69
2023-05-05T07:14:17.114Z,60921.31
2023-05-05T07:16:46.392Z,60917.09
2023-05-05T07:19:14.722Z,60917.66
2023-05-05T07:21:44.421Z,60916.41
2023-05-05T07:24:12.749Z,60922.28
2023-05-05T07:26:41.304Z,60921.06
2023-05-05T07:29:09.686Z,60926.91
2023-05-05T07:31:38.118Z,60927.59
2023-05-05T07:34:06.461Z,60935.63
2023-05-05T07:36:34.800Z,60942.16
2023-05-05T07:39:05.135Z,60952.78
2023-05-05T07:41:34.042Z,60954.56
2023-05-05T07:44:02.404Z,60968.63
2023-05-05T07:46:30.768Z,60967.94
2023-05-05T07:48:59.132Z,60978.16
2023-05-05T07:51:27.735Z,60990.53
2023-05-05T07:53:56.681Z,60999.69
2023-05-05T07:56:26.523Z,60999.56
2023-05-05T07:58:54.855Z,61004.88
2023-05-05T08:01:23.309Z,61013.88
2023-05-05T08:03:51.896Z,61017.44
2023-05-05T08:06:22.075Z,61025.63
2023-05-05T08:08:50.807Z,61032.56
2023-05-05T08:11:19.114Z,61039.66
2023-05-05T08:13:49.448Z,61042.53
2023-05-05T08:16:18.002Z,61058.06
2023-05-05T08:18:46.363Z,61062.16
2023-05-05T08:21:14.704Z,61077.88
2023-05-05T08:23:43.053Z,61080.31
2023-05-05T08:26:11.417Z,61096.00
2023-05-05T08:28:39.958Z,61101.34
2023-05-05T08:31:10.113Z,61101.22
2023-05-05T08:33:38.441Z,61110.22
2023-05-05T08:36:08.974Z,61119.63
2023-05-05T08:38:37.391Z,61128.22
2023-05-05T08:41:07.467Z,61136.81
2023-05-05T08:43:36.613Z,61140.78
2023-05-05T08:46:06.129Z,61148.03
2023-05-05T08:48:41.390Z,61159.09
2023-05-05T08:51:11.137Z,61178.75
2023-05-05T08:53:48.185Z,61176.44
2023-05-05T08:56:16.718Z,61184.50
2023-05-05T08:58:48.276Z,61193.66
2023-05-05T09:01:17.882Z,61197.59
2023-05-05T09:03:48.119Z,61203.63
2023-05-05T09:06:16.812Z,61212.50
2023-05-05T09:08:45.532Z,61218.66
2023-05-05T09:11:14.089Z,61232.56
2023-05-05T09:13:43.555Z,61240.78
2023-05-05T09:16:11.947Z,61249.13
2023-05-05T09:18:42.573Z,61261.00
2023-05-05T09:21:22.621Z,61273.59
2023-05-05T09:24:10.839Z,61277.44
2023-05-05T09:26:43.687Z,61275.78
2023-05-05T09:29:19.438Z,61290.00
2023-05-05T09:32:05.419Z,61299.72
2023-05-05T09:34:35.468Z,61296.28
2023-05-05T09:37:06.215Z,61309.56
2023-05-05T09:39:34.737Z,61313.66
2023-05-05T09:42:03.681Z,61328.28
2023-05-05T09:44:36.407Z,61337.31
2023-05-05T09:47:09.361Z,61357.84
2023-05-05T09:49:43.425Z,61373.44
2023-05-05T09:52:17.701Z,61383.41
2023-05-05T09:54:46.410Z,61400.81
2023-05-05T09:57:27.418Z,61396.28
2023-05-05T09:59:57.490Z,61405.72
2023-05-05T10:02:34.509Z,61425.16
2023-05-05T10:05:07.592Z,61433.91
2023-05-05T10:07:40.300Z,61439.94
2023-05-05T10:10:10.948Z,61436.66
2023-05-05T10:12:40.176Z,61435.28
2023-05-05T10:15:10.001Z,61466.91
2023-05-05T10:17:57.907Z,61473.06
2023-05-05T10:20:33.046Z,61486.75
2023-05-05T10:23:06.598Z,61501.31
2023-05-05T10:25:40.210Z,61499.22
2023-05-05T10:28:12.920Z,61532.53
2023-05-05T10:30:47.039Z,61568.41
2023-05-05T10:33:30.842Z,61598.97
2023-05-05T10:36:03.069Z,61615.03
2023-05-05T10:38:33.155Z,61646.56
2023-05-05T10:41:02.552Z,61692.78
2023-05-05T10:43:32.146Z,61736.28
2023-05-05T10:46:01.465Z,61767.97
2023-05-05T10:48:36.837Z,61777.88
2023-05-05T10:51:27.461Z,61804.91
2023-05-05T10:54:13.110Z,61818.09
2023-05-05T10:56:43.235Z,61855.22
2023-05-05T10:59:45.392Z,61867.09
2023-05-05T11:02:28.020Z,61876.09
2023-05-05T11:05:17.491Z,61854.38
2023-05-05T11:07:46.711Z,61871.94
2023-05-05T11:10:17.433Z,61889.53
2023-05-05T11:13:20.668Z,61881.31
2023-05-05T11:15:50.664Z,61863.16
2023-05-05T11:18:39.319Z,61847.78
2023-05-05T11:21:18.329Z,61870.28
2023-05-05T11:23:51.298Z,61902.19
2023-05-05T11:26:51.557Z,61881.44
2023-05-05T11:29:20.018Z,61843.38
2023-05-05T11:32:12.113Z,61839.41
2023-05-05T11:34:49.898Z,61826.63
2023-05-05T11:37:18.400Z,61813.47
2023-05-05T11:40:02.404Z,61795.03
2023-05-05T11:42:32.582Z,61772.81
2023-05-05T11:45:01.193Z,61746.72
2023-05-05T11:47:32.012Z,61738.34
2023-05-05T11:50:16.390Z,61741.78
2023-05-05T11:52:44.673Z,61766.59
2023-05-05T11:55:13.166Z,61779.66
2023-05-05T11:57:43.190Z,61803.41
2023-05-05T12:00:12.740Z,61811.94
2023-05-05T12:02:41.520Z,61837.88
2023-05-05T12:05:10.481Z,61861.78
2023-05-05T12:07:39.005Z,61895.03
2023-05-05T12:10:08.594Z,61858.22
2023-05-05T12:12:38.612Z,61877.72
2023-05-05T12:15:10.412Z,61944.63
2023-05-05T12:17:45.950Z,61936.16
2023-05-05T12:20:14.950Z,61914.28
2023-05-05T12:22:44.727Z,61970.94
2023-05-05T12:25:13.213Z,61965.41
2023-05-05T12:27:42.605Z,61976.44
2023-05-05T12:30:18.416Z,61984.56
2023-05-05T12:32:47.248Z,62008.75
2023-05-05T12:35:16.963Z,61976.44
2023-05-05T12:37:45.651Z,61985.22
2023-05-05T12:40:45.885Z,61962.13
2023-05-05T12:43:28.791Z,62011.63
2023-05-05T12:46:09.198Z,62074.81
2023-05-05T12:48:39.132Z,62080.97
2023-05-05T12:51:28.380Z,62126.34
2023-05-05T12:54:04.934Z,62101.47
2023-05-05T12:56:35.252Z,62088.69
2023-05-05T12:59:04.979Z,62123.47
2023-05-05T13:01:35.669Z,62091.44
2023-05-05T13:04:14.387Z,62124.91
2023-05-05T13:06:45.038Z,62133.28
2023-05-05T13:09:24.263Z,62178.34
2023-05-05T13:11:52.803Z,62103.97
2023-05-05T13:14:21.835Z,62087.56
2023-05-05T13:16:51.600Z,62134.69
2023-05-05T13:19:19.905Z,62112.22
2023-05-05T13:21:48.347Z,62091.31
2023-05-05T13:24:23.670Z,62099.69
2023-05-05T13:26:57.153Z,62127.88
2023-05-05T13:29:29.040Z,62131.63
2023-05-05T13:32:01.339Z,62151.47
2023-05-05T13:34:29.890Z,62182.97
2023-05-05T13:36:58.272Z,62225.28
2023-05-05T13:39:26.587Z,62235.47
2023-05-05T13:41:54.931Z,62243.50
2023-05-05T13:44:23.298Z,62219.78
2023-05-05T13:46:51.782Z,62183.97
2023-05-05T13:49:21.694Z,62206.53
2023-05-05T13:51:50.119Z,62246.91
2023-05-05T13:54:18.843Z,62245.25
2023-05-05T13:56:47.580Z,62225.28
2023-05-05T13:59:15.868Z,62243.50
2023-05-05T14:01:44.216Z,62182.84
2023-05-05T14:04:12.793Z,62144.59
2023-05-05T14:06:42.531Z,62077.25
2023-05-05T14:09:11.010Z,62086.22
2023-05-05T14:11:39.299Z,62069.53
2023-05-05T14:14:07.733Z,62082.63
2023-05-05T14:16:36.093Z,62049.03
2023-05-05T14:19:04.576Z,62078.09
2023-05-05T14:21:33.554Z,62084.03
2023-05-05T14:24:03.319Z,62100.78
2023-05-05T14:26:31.696Z,62137.47
2023-05-05T14:29:00.123Z,62130.53
2023-05-05T14:31:28.687Z,62149.94
2023-05-05T14:33:57.015Z,62166.34
2023-05-05T14:36:25.339Z,62155.44
2023-05-05T14:38:53.937Z,62178.34
2023-05-05T14:41:23.720Z,62137.59
2023-05-05T14:43:52.061Z,62074.94
2023-05-05T14:46:20.502Z,62098.59
2023-05-05T14:48:48.944Z,62103.66
2023-05-05T14:51:17.414Z,62105.75
2023-05-05T14:53:45.783Z,62056.75
2023-05-05T14:56:14.116Z,62024.41
2023-05-05T14:58:43.991Z,61984.13
2023-05-05T15:01:12.384Z,61958.56
2023-05-05T15:03:41.192Z,61952.22
2023-05-05T15:06:10.531Z,61909.75
2023-05-05T15:08:39.019Z,61925.16
2023-05-05T15:11:07.509Z,61937.66
2023-05-05T15:13:38.546Z,61916.22
2023-05-05T15:16:09.204Z,61924.72
2023-05-05T15:18:37.613Z,61887.34
2023-05-05T15:21:06.213Z,61898.88
2023-05-05T15:23:34.735Z,61906.88
2023-05-05T15:26:03.861Z,61917.03
2023-05-05T15:28:32.298Z,61933.53
2023-05-05T15:31:02.912Z,61940.97
2023-05-05T15:33:33.525Z,61908.91
2023-05-05T15:36:02.151Z,61908.22
2023-05-05T15:38:31.253Z,61928.44
2023-05-05T15:40:59.791Z,61873.03
2023-05-05T15:43:28.403Z,61860.16
2023-05-05T15:45:56.743Z,61854.13
2023-05-05T15:48:25.036Z,61856.97
2023-05-05T15:50:54.803Z,61833.91
2023-05-05T15:53:23.214Z,61829.63
2023-05-05T15:55:51.582Z,61826.91
2023-05-05T15:58:19.922Z,61814.81
2023-05-05T16:00:48.384Z,61791.19
2023-05-05T16:03:17.868Z,61776.22
2023-05-05T16:05:47.136Z,61771.28
2023-05-05T16:08:16.857Z,61757.00
2023-05-05T16:10:45.164Z,61731.19
2023-05-05T16:13:14.028Z,61716.81
2023-05-05T16:15:42.470Z,61713.22
2023-05-05T16:18:10.792Z,61707.75
2023-05-05T16:20:39.160Z,61702.25
2023-05-05T16:23:08.000Z,61688.78
2023-05-05T16:25:37.771Z,61677.13
2023-05-05T16:28:06.581Z,61669.06
2023-05-05T16:30:35.348Z,61650.94
2023-05-05T16:33:03.926Z,61646.84
2023-05-05T16:35:32.330Z,61647.13
2023-05-05T16:38:00.730Z,61641.50
2023-05-05T16:40:29.345Z,61644.38
2023-05-05T16:42:59.068Z,61636.69
2023-05-05T16:45:27.363Z,61631.34
2023-05-05T16:47:56.301Z,61626.81
2023-05-05T16:50:24.896Z,61609.53
2023-05-05T16:52:54.436Z,61604.47
2023-05-05T16:55:22.891Z,61603.38
2023-05-05T16:57:51.621Z,61591.03
2023-05-05T17:00:21.836Z,61584.19
2023-05-05T17:02:50.401Z,61570.88
2023-05-05T17:05:18.965Z,61559.78
2023-05-05T17:07:48.237Z,61555.13
2023-05-05T17:10:16.727Z,61547.47
2023-05-05T17:12:45.431Z,61538.28
2023-05-05T17:15:13.932Z,61532.09
2023-05-05T17:17:43.692Z,61529.91
2023-05-05T17:20:13.142Z,61525.53
2023-05-05T17:22:41.577Z,61527.72
2023-05-05T17:25:11.249Z,61526.50
2023-05-05T17:27:39.754Z,61516.75
2023-05-05T17:30:09.276Z,61513.75
2023-05-05T17:32:38.159Z,61522.66
2023-05-05T17:35:08.687Z,61518.28
2023-05-05T17:37:37.709Z,61508.44
2023-05-05T17:40:07.553Z,61497.72
2023-05-05T17:42:35.953Z,61490.84
2023-05-05T17:45:04.752Z,61489.78
2023-05-05T17:47:33.174Z,61481.28
2023-05-05T17:50:01.878Z,61465.38
2023-05-05T17:52:31.700Z,61460.88
2023-05-05T17:55:00.029Z,61456.06
2023-05-05T17:57:28.718Z,61471.16
2023-05-05T17:59:57.394Z,61463.50
2023-05-05T18:02:25.996Z,61453.91
2023-05-05T18:04:54.472Z,61447.59
2023-05-05T18:07:22.817Z,61447.34
2023-05-05T18:09:52.656Z,61436.66
2023-05-05T18:12:21.425Z,61440.50
2023-05-05T18:14:49.784Z,61421.03
2023-05-05T18:17:18.168Z,61414.91
2023-05-05T18:19:49.082Z,61408.88
2023-05-05T18:22:18.491Z,61395.59
2023-05-05T18:24:47.700Z,61390.66
2023-05-05T18:27:17.531Z,61380.66
2023-05-05T18:29:45.838Z,61374.25
2023-05-05T18:32:14.296Z,61372.72
2023-05-05T18:34:42.636Z,61372.59
2023-05-05T18:37:11.138Z,61363.84
2023-05-05T18:39:39.698Z,61344.69
2023-05-05T18:42:08.834Z,61337.59
2023-05-05T18:44:38.718Z,61337.59
2023-05-05T18:47:07.521Z,61324.44
2023-05-05T18:49:35.903Z,61327.31
2023-05-05T18:52:04.356Z,61323.34
2023-05-05T18:54:32.691Z,61312.16
2023-05-05T18:57:01.488Z,61310.50
2023-05-05T18:59:29.893Z,61322.69
2023-05-05T19:02:00.488Z,61313.09
2023-05-05T19:04:31.661Z,61297.91
2023-05-05T19:07:00.719Z,61300.81
2023-05-05T19:09:29.300Z,61290.81
2023-05-05T19:11:57.675Z,61299.28
2023-05-05T19:14:26.122Z,61299.56
2023-05-05T19:16:55.750Z,61290.69
2023-05-05T19:19:26.050Z,61286.19
2023-05-05T19:21:54.802Z,61275.91
2023-05-05T19:24:23.181Z,61256.22
2023-05-05T19:26:51.732Z,61250.06
2023-05-05T19:29:20.094Z,61249.53
2023-05-05T19:31:48.785Z,61252.25
2023-05-05T19:34:17.120Z,61255.00
2023-05-05T19:36:46.787Z,61244.19
2023-05-05T19:39:15.875Z,61248.16
2023-05-05T19:41:44.321Z,61227.38
2023-05-05T19:44:12.629Z,61226.56
2023-05-05T19:46:41.318Z,61225.50
2023-05-05T19:49:09.736Z,61216.19
2023-05-05T19:51:38.396Z,61212.63
2023-05-05T19:54:08.295Z,61199.94
2023-05-05T19:56:36.560Z,61194.34
2023-05-05T19:59:06.359Z,61189.56
2023-05-05T20:01:36.100Z,61194.34
2023-05-05T20:04:04.867Z,61196.53
2023-05-05T20:06:33.727Z,61181.34
2023-05-05T20:09:02.185Z,61182.56
2023-05-05T20:11:32.361Z,61185.03
2023-05-05T20:14:01.012Z,61177.94
2023-05-05T20:16:29.523Z,61175.75
2023-05-05T20:18:58.053Z,61176.59
2023-05-05T20:21:26.717Z,61163.88
2023-05-05T20:23:55.454Z,61170.28
2023-05-05T20:26:24.478Z,61165.38
2023-05-05T20:28:54.279Z,61153.91
2023-05-05T20:31:22.899Z,61156.50
2023-05-05T20:33:51.287Z,61138.19
2023-05-05T20:36:19.861Z,61125.91
2023-05-05T20:38:48.238Z,61121.13
2023-05-05T20:41:16.587Z,61122.63
2023-05-05T20:43:45.028Z,61114.59
2023-05-05T20:46:14.810Z,61117.44
2023-05-05T20:48:43.388Z,61118.41
2023-05-05T20:51:11.703Z,61116.75
2023-05-05T20:53:40.035Z,61101.22
2023-05-05T20:56:09.217Z,61110.22
2023-05-05T20:58:37.806Z,61109.66
2023-05-05T21:01:06.276Z,61114.03
2023-05-05T21:03:37.249Z,61104.75
2023-05-05T21:06:06.078Z,61093.84
2023-05-05T21:08:34.441Z,61094.38
2023-05-05T21:11:02.846Z,61089.47
2023-05-05T21:13:32.099Z,61088.38
2023-05-05T21:16:00.403Z,61085.50
2023-05-05T21:18:28.771Z,61076.66
2023-05-05T21:20:58.833Z,61075.69
2023-05-05T21:23:27.134Z,61076.22
2023-05-05T21:25:55.474Z,61082.38
2023-05-05T21:28:23.978Z,61070.91
2023-05-05T21:33:23.758Z,61067.34
2023-05-05T21:35:52.066Z,61052.50
2023-05-05T21:38:21.738Z,61052.38
2023-05-05T21:40:50.346Z,61051.25
2023-05-05T21:43:18.714Z,61050.59
2023-05-05T21:45:47.013Z,61055.63
2023-05-05T21:48:15.343Z,61055.09
2023-05-05T21:50:43.743Z,61058.63
2023-05-05T21:53:12.130Z,61043.63
2023-05-05T21:55:41.815Z,61058.78
2023-05-05T21:58:10.444Z,61054.53
2023-05-05T22:00:38.862Z,61045.41
2023-05-05T22:03:07.375Z,61049.06
2023-05-05T22:05:35.881Z,61043.47
2023-05-05T22:08:04.488Z,61047.72
2023-05-05T22:10:32.835Z,61039.81
2023-05-05T22:13:02.661Z,61029.84
2023-05-05T22:15:38.899Z,61009.78
2023-05-05T22:18:14.055Z,61005.41
2023-05-05T22:20:44.132Z,61004.59
2023-05-05T22:23:14.008Z,61002.56
2023-05-05T22:25:42.425Z,60995.59
2023-05-05T22:28:12.324Z,60993.97
2023-05-05T22:30:40.738Z,60981.97
2023-05-05T22:33:09.463Z,60985.09
2023-05-05T22:35:38.223Z,60992.31
2023-05-05T22:38:07.061Z,60985.38
2023-05-05T22:40:35.491Z,60984.00
2023-05-05T22:43:03.789Z,60986.59
2023-05-05T22:45:34.146Z,60978.56
2023-05-05T22:48:02.852Z,60967.66
2023-05-05T22:50:31.242Z,60963.69
2023-05-05T22:52:59.634Z,60955.25
2023-05-05T22:55:28.049Z,60941.91
2023-05-05T22:57:56.408Z,60936.31
2023-05-05T23:00:25.119Z,60943.53
2023-05-05T23:02:55.038Z,60929.09
2023-05-05T23:05:23.367Z,60919.03
2023-05-05T23:07:51.729Z,60921.72
2023-05-05T23:10:20.055Z,60921.19
2023-05-05T23:12:48.411Z,60915.47
2023-05-05T23:15:17.154Z,60908.09
2023-05-05T23:17:45.515Z,60898.97
2023-05-05T23:20:15.192Z,60890.78
2023-05-05T23:22:43.526Z,60877.44
2023-05-05T23:25:12.405Z,60877.16
2023-05-05T23:27:41.380Z,60872.41
2023-05-05T23:30:10.434Z,60873.50
2023-05-05T23:32:38.895Z,60869.69
2023-05-05T23:35:08.388Z,60862.06
2023-05-05T23:37:38.240Z,60853.47
2023-05-05T23:40:07.853Z,60846.66
2023-05-05T23:42:36.150Z,60834.69
2023-05-05T23:45:04.827Z,60824.19
2023-05-05T23:47:33.244Z,60811.09
2023-05-05T23:50:01.745Z,60787.31
2023-05-05T23:52:30.089Z,60768.81
2023-05-05T23:54:59.760Z,60765.38
2023-05-05T23:57:28.021Z,60759.56
2023-05-05T23:59:56.380Z,60755.19
